createdAt,value
2023-04-27T00:01:42.220Z,25.60
2023-04-27T00:04:09.177Z,20.20
2023-04-27T00:06:36.125Z,23.10
2023-04-27T00:09:03.903Z,23.00
2023-04-27T00:11:31.039Z,22.80
2023-04-27T00:13:57.782Z,22.20
2023-04-27T00:16:24.562Z,19.50
2023-04-27T00:18:52.270Z,18.60
2023-04-27T00:21:18.910Z,22.40
2023-04-27T00:23:45.858Z,19.60
2023-04-27T00:26:12.386Z,18.70
2023-04-27T00:28:39.278Z,19.40
2023-04-27T00:31:06.001Z,21.20
2023-04-27T00:33:32.667Z,22.90
2023-04-27T00:36:01.349Z,24.70
2023-04-27T00:38:29.486Z,20.40
2023-04-27T00:41:03.813Z,22.10
2023-04-27T00:43:30.613Z,26.90
2023-04-27T00:45:58.124Z,24.60
2023-04-27T00:48:25.548Z,32.80
2023-04-27T00:50:52.750Z,37.20
2023-04-27T00:53:19.959Z,35.30
2023-04-27T00:55:47.230Z,30.80
2023-04-27T00:58:13.819Z,39.10
2023-04-27T01:00:41.007Z,47.10
2023-04-27T01:03:08.374Z,32.10
2023-04-27T01:05:37.953Z,33.00
2023-04-27T01:08:05.505Z,29.80
2023-04-27T01:10:32.125Z,36.60
2023-04-27T01:12:58.905Z,33.20
2023-04-27T01:15:25.654Z,31.90
2023-04-27T01:18:02.663Z,34.00
2023-04-27T01:20:32.694Z,32.20
2023-04-27T01:22:59.969Z,30.40
2023-04-27T01:25:26.638Z,31.50
2023-04-27T01:27:54.510Z,40.20
2023-04-27T01:30:22.649Z,43.10
2023-04-27T01:32:50.121Z,37.60
2023-04-27T01:35:18.958Z,46.10
2023-04-27T01:37:47.644Z,43.10
2023-04-27T01:40:15.001Z,41.60
2023-04-27T01:42:42.142Z,44.50
2023-04-27T01:45:09.611Z,45.20
2023-04-27T01:47:36.402Z,43.40
2023-04-27T01:50:04.044Z,43.00
2023-04-27T01:52:30.631Z,43.90
2023-04-27T01:54:57.302Z,47.40
2023-04-27T01:57:23.925Z,46.60
2023-04-27T01:59:50.680Z,41.40
2023-04-27T02:02:17.293Z,46.00
2023-04-27T02:04:45.243Z,48.50
2023-04-27T02:07:12.316Z,45.00
2023-04-27T02:09:38.891Z,46.40
2023-04-27T02:12:06.125Z,45.00
2023-04-27T02:14:32.943Z,49.50
2023-04-27T02:17:06.237Z,41.30
2023-04-27T02:19:32.865Z,43.10
2023-04-27T02:21:59.459Z,42.10
2023-04-27T02:24:26.953Z,41.30
2023-04-27T02:26:53.578Z,39.60
2023-04-27T02:29:20.194Z,42.70
2023-04-27T02:31:47.540Z,40.50
2023-04-27T02:34:14.131Z,40.00
2023-04-27T02:36:40.767Z,42.20
2023-04-27T02:39:09.150Z,35.20
2023-04-27T02:41:37.049Z,38.10
2023-04-27T02:44:03.646Z,38.40
2023-04-27T02:46:30.835Z,39.00
2023-04-27T02:48:57.518Z,38.10
2023-04-27T02:51:24.100Z,38.80
2023-04-27T02:53:53.120Z,39.30
2023-04-27T02:56:19.718Z,39.40
2023-04-27T02:58:48.015Z,40.90
2023-04-27T03:01:17.292Z,38.50
2023-04-27T03:03:48.145Z,39.80
2023-04-27T03:06:15.342Z,42.10
2023-04-27T03:08:42.260Z,44.00
2023-04-27T03:11:09.553Z,44.40
2023-04-27T03:13:41.889Z,37.90
2023-04-27T03:16:11.840Z,43.60
2023-04-27T03:18:39.876Z,44.40
2023-04-27T03:21:07.150Z,55.10
2023-04-27T03:23:33.974Z,55.50
2023-04-27T03:26:01.190Z,55.20
2023-04-27T03:28:27.949Z,68.90
2023-04-27T03:30:55.406Z,60.70
2023-04-27T03:33:22.318Z,56.90
2023-04-27T03:35:56.552Z,59.90
2023-04-27T03:38:23.992Z,53.80
2023-04-27T03:40:50.846Z,50.30
2023-04-27T03:43:18.423Z,55.50
2023-04-27T03:45:45.058Z,54.30
2023-04-27T03:48:11.896Z,44.90
2023-04-27T03:50:38.754Z,47.70
2023-04-27T03:53:05.366Z,44.40
2023-04-27T03:55:32.100Z,40.40
2023-04-27T03:57:58.774Z,40.20
2023-04-27T04:00:25.386Z,37.30
2023-04-27T04:02:53.415Z,38.70
2023-04-27T04:05:20.557Z,43.70
2023-04-27T04:07:48.967Z,42.30
2023-04-27T04:10:15.640Z,46.10
2023-04-27T04:12:42.523Z,38.40
2023-04-27T04:15:09.390Z,47.10
2023-04-27T04:17:36.688Z,47.10
2023-04-27T04:20:08.008Z,47.00
2023-04-27T04:22:34.621Z,46.00
2023-04-27T04:25:01.397Z,47.50
2023-04-27T04:27:28.175Z,44.50
2023-04-27T04:29:55.617Z,36.80
2023-04-27T04:32:23.176Z,32.80
2023-04-27T04:34:52.700Z,31.20
2023-04-27T04:37:20.139Z,34.80
2023-04-27T04:39:46.730Z,34.00
2023-04-27T04:42:13.581Z,35.40
2023-04-27T04:44:43.293Z,30.00
2023-04-27T04:47:10.294Z,30.80
2023-04-27T04:49:36.971Z,31.20
2023-04-27T04:52:06.453Z,33.70
2023-04-27T04:54:32.997Z,28.50
2023-04-27T04:57:00.944Z,35.20
2023-04-27T04:59:29.037Z,34.80
2023-04-27T05:01:58.243Z,31.60
2023-04-27T05:04:25.158Z,29.60
2023-04-27T05:06:53.076Z,25.60
2023-04-27T05:09:19.638Z,23.00
2023-04-27T05:11:46.350Z,23.20
2023-04-27T05:14:12.912Z,27.20
2023-04-27T05:16:39.471Z,23.00
2023-04-27T05:19:06.074Z,26.20
2023-04-27T05:21:33.632Z,22.30
2023-04-27T05:24:00.735Z,24.40
2023-04-27T05:26:27.331Z,32.40
2023-04-27T05:28:53.862Z,29.10
2023-04-27T05:31:20.538Z,21.70
2023-04-27T05:33:47.151Z,28.50
2023-04-27T05:36:13.732Z,25.50
2023-04-27T05:38:40.586Z,23.70
2023-04-27T05:41:07.586Z,22.00
2023-04-27T05:43:35.163Z,26.60
2023-04-27T05:46:01.839Z,30.40
2023-04-27T05:48:28.488Z,25.30
2023-04-27T05:51:02.857Z,27.20
2023-04-27T05:53:30.210Z,24.70
2023-04-27T05:55:59.031Z,21.20
2023-04-27T05:58:25.962Z,20.00
2023-04-27T06:00:53.659Z,23.50
2023-04-27T06:03:20.641Z,20.70
2023-04-27T06:05:47.310Z,28.80
2023-04-27T06:08:14.017Z,22.10
2023-04-27T06:10:41.099Z,24.20
2023-04-27T06:13:07.627Z,22.30
2023-04-27T06:15:34.235Z,24.10
2023-04-27T06:18:00.815Z,21.10
2023-04-27T06:20:27.581Z,23.10
2023-04-27T06:22:54.479Z,25.30
2023-04-27T06:25:24.419Z,18.80
2023-04-27T06:27:52.693Z,27.30
2023-04-27T06:30:19.322Z,22.00
2023-04-27T06:32:46.044Z,21.50
2023-04-27T06:35:12.670Z,23.50
2023-04-27T06:37:39.258Z,22.10
2023-04-27T06:40:07.616Z,19.80
2023-04-27T06:42:34.859Z,16.70
2023-04-27T06:45:01.381Z,21.50
2023-04-27T06:47:30.860Z,17.60
2023-04-27T06:49:57.507Z,13.70
2023-04-27T06:52:24.107Z,12.10
2023-04-27T06:54:50.644Z,12.60
2023-04-27T06:57:17.314Z,14.80
2023-04-27T06:59:43.936Z,15.30
2023-04-27T07:02:10.905Z,10.30
2023-04-27T07:04:38.234Z,11.80
2023-04-27T07:07:05.052Z,11.40
2023-04-27T07:09:31.853Z,10.60
2023-04-27T07:11:59.029Z,11.50
2023-04-27T07:14:26.022Z,10.00
2023-04-27T07:16:52.640Z,11.90
2023-04-27T07:19:19.543Z,10.20
2023-04-27T07:21:46.228Z,11.50
2023-04-27T07:24:12.848Z,10.50
2023-04-27T07:26:39.657Z,10.90
2023-04-27T07:29:14.755Z,8.50
2023-04-27T07:31:52.184Z,10.10
2023-04-27T07:34:18.922Z,9.50
2023-04-27T07:36:45.807Z,9.40
2023-04-27T07:39:12.794Z,8.90
2023-04-27T07:41:39.799Z,9.70
2023-04-27T07:44:06.535Z,6.50
2023-04-27T07:46:33.182Z,7.20
2023-04-27T07:49:00.218Z,6.80
2023-04-27T07:51:28.870Z,8.00
2023-04-27T07:53:56.403Z,6.30
2023-04-27T07:56:22.978Z,8.80
2023-04-27T07:58:49.496Z,9.60
2023-04-27T08:01:16.916Z,6.60
2023-04-27T08:03:44.777Z,6.40
2023-04-27T08:06:12.156Z,9.20
2023-04-27T08:08:38.981Z,6.40
2023-04-27T08:11:09.729Z,8.70
2023-04-27T08:13:36.866Z,7.50
2023-04-27T08:16:03.699Z,5.60
2023-04-27T08:18:30.503Z,5.70
2023-04-27T08:20:57.170Z,6.30
2023-04-27T08:23:28.413Z,6.10
2023-04-27T08:25:55.182Z,6.50
2023-04-27T08:28:23.330Z,7.00
2023-04-27T08:30:50.099Z,6.90
2023-04-27T08:33:16.886Z,10.80
2023-04-27T08:35:43.565Z,8.10
2023-04-27T08:38:10.232Z,8.90
2023-04-27T08:40:41.714Z,7.40
2023-04-27T08:43:08.367Z,7.40
2023-04-27T08:45:34.907Z,6.40
2023-04-27T08:48:01.516Z,8.80
2023-04-27T08:50:28.658Z,6.90
2023-04-27T08:52:55.262Z,6.60
2023-04-27T08:55:22.110Z,10.20
2023-04-27T08:57:56.272Z,6.10
2023-04-27T09:00:24.746Z,7.60
2023-04-27T09:02:51.873Z,8.30
2023-04-27T09:05:20.113Z,5.50
2023-04-27T09:08:16.408Z,6.90
2023-04-27T09:10:53.278Z,8.40
2023-04-27T09:13:19.816Z,7.30
2023-04-27T09:15:51.821Z,8.00
2023-04-27T09:18:21.057Z,7.70
2023-04-27T09:20:52.433Z,5.80
2023-04-27T09:23:32.887Z,11.10
2023-04-27T09:26:01.552Z,9.00
2023-04-27T09:28:30.663Z,8.90
2023-04-27T09:31:02.035Z,9.50
2023-04-27T09:33:31.624Z,5.60
2023-04-27T09:35:59.964Z,9.40
2023-04-27T09:38:27.175Z,6.10
2023-04-27T09:40:54.937Z,7.20
2023-04-27T09:43:22.125Z,9.70
2023-04-27T09:45:50.165Z,11.00
2023-04-27T09:48:18.548Z,18.10
2023-04-27T09:50:46.577Z,13.40
2023-04-27T09:53:15.790Z,31.10
2023-04-27T09:56:35.181Z,41.30
2023-04-27T09:59:27.045Z,24.40
2023-04-27T10:02:02.796Z,31.40
2023-04-27T10:04:31.929Z,22.00
2023-04-27T10:07:00.039Z,15.60
2023-04-27T10:09:30.499Z,20.40
2023-04-27T10:12:15.659Z,30.90
2023-04-27T10:14:53.567Z,14.10
2023-04-27T10:17:27.114Z,9.30
2023-04-27T10:19:58.228Z,9.00
2023-04-27T10:22:40.599Z,21.80
2023-04-27T10:25:17.912Z,21.50
2023-04-27T10:27:49.870Z,20.80
2023-04-27T10:30:18.877Z,15.20
2023-04-27T10:32:58.018Z,8.20
2023-04-27T10:35:36.788Z,7.80
2023-04-27T10:38:11.224Z,8.20
2023-04-27T10:40:38.718Z,9.30
2023-04-27T10:43:13.228Z,10.40
2023-04-27T10:45:41.339Z,19.10
2023-04-27T10:48:08.773Z,7.10
2023-04-27T10:50:35.834Z,10.30
2023-04-27T10:53:05.376Z,5.60
2023-04-27T10:55:33.201Z,13.40
2023-04-27T10:58:01.563Z,12.00
2023-04-27T11:00:33.312Z,8.10
2023-04-27T11:03:14.582Z,6.70
2023-04-27T11:05:43.094Z,5.60
2023-04-27T11:08:12.163Z,7.90
2023-04-27T11:10:47.402Z,6.60
2023-04-27T11:13:16.109Z,6.70
2023-04-27T11:15:56.653Z,7.20
2023-04-27T11:18:31.753Z,16.00
2023-04-27T11:21:13.426Z,6.60
2023-04-27T11:23:41.245Z,13.20
2023-04-27T11:26:21.570Z,5.80
2023-04-27T11:29:12.548Z,8.40
2023-04-27T11:31:47.385Z,8.30
2023-04-27T11:34:19.688Z,10.70
2023-04-27T11:39:36.562Z,5.50
2023-04-27T11:42:23.495Z,9.60
2023-04-27T11:44:59.291Z,7.80
2023-04-27T11:47:31.201Z,7.50
2023-04-27T11:50:04.645Z,6.00
2023-04-27T11:52:36.277Z,4.50
2023-04-27T11:55:04.713Z,6.20
2023-04-27T11:57:33.654Z,6.20
2023-04-27T12:00:02.569Z,7.60
2023-04-27T12:02:40.707Z,4.80
2023-04-27T12:05:09.212Z,6.90
2023-04-27T12:07:36.432Z,8.20
2023-04-27T12:10:03.398Z,10.70
2023-04-27T12:12:30.026Z,3.70
2023-04-27T12:14:56.858Z,6.50
2023-04-27T12:17:23.529Z,5.90
2023-04-27T12:19:50.256Z,5.70
2023-04-27T12:22:16.883Z,5.10
2023-04-27T12:24:43.503Z,6.30
2023-04-27T12:27:10.105Z,5.50
2023-04-27T12:29:37.600Z,5.50
2023-04-27T12:32:04.670Z,4.70
2023-04-27T12:34:32.357Z,5.00
2023-04-27T12:36:59.215Z,3.70
2023-04-27T12:39:26.014Z,7.60
2023-04-27T12:41:54.165Z,7.80
2023-04-27T12:44:21.915Z,9.30
2023-04-27T12:46:48.903Z,5.80
2023-04-27T12:49:15.906Z,6.10
2023-04-27T12:51:43.280Z,3.40
2023-04-27T12:54:11.421Z,14.00
2023-04-27T12:56:38.289Z,3.80
2023-04-27T12:59:06.257Z,6.50
2023-04-27T13:01:33.434Z,4.00
2023-04-27T13:04:02.996Z,9.60
2023-04-27T13:06:32.200Z,5.90
2023-04-27T13:08:59.780Z,4.80
2023-04-27T13:11:27.234Z,12.50
2023-04-27T13:13:55.335Z,4.30
2023-04-27T13:16:25.177Z,4.70
2023-04-27T13:18:53.847Z,3.50
2023-04-27T13:21:21.051Z,5.10
2023-04-27T13:23:48.147Z,4.30
2023-04-27T13:26:16.574Z,5.00
2023-04-27T13:28:43.409Z,3.20
2023-04-27T13:31:11.123Z,3.80
2023-04-27T13:33:43.267Z,4.60
2023-04-27T13:36:11.509Z,3.50
2023-04-27T13:38:38.493Z,2.50
2023-04-27T13:41:06.605Z,5.20
2023-04-27T13:43:33.507Z,8.10
2023-04-27T13:46:01.587Z,5.00
2023-04-27T13:48:29.867Z,4.80
2023-04-27T13:50:56.962Z,4.90
2023-04-27T13:53:25.920Z,2.80
2023-04-27T13:55:57.524Z,7.10
2023-04-27T13:58:26.277Z,3.90
2023-04-27T14:00:53.919Z,4.20
2023-04-27T14:03:21.629Z,3.70
2023-04-27T14:05:51.012Z,4.50
2023-04-27T14:08:18.425Z,3.70
2023-04-27T14:10:46.012Z,4.70
2023-04-27T14:13:13.262Z,2.80
2023-04-27T14:15:40.427Z,3.40
2023-04-27T14:18:08.435Z,2.90
2023-04-27T14:20:36.437Z,7.40
2023-04-27T14:23:04.999Z,3.70
2023-04-27T14:25:35.183Z,3.70
2023-04-27T14:28:05.075Z,8.00
2023-04-27T14:30:35.462Z,3.80
2023-04-27T14:33:02.702Z,5.80
2023-04-27T14:35:29.621Z,5.60
2023-04-27T14:38:01.906Z,5.70
2023-04-27T14:40:32.569Z,2.70
2023-04-27T14:42:59.767Z,7.10
2023-04-27T14:45:36.720Z,5.40
2023-04-27T14:48:07.203Z,5.70
2023-04-27T14:50:34.671Z,5.80
2023-04-27T14:53:02.227Z,5.90
2023-04-27T14:55:29.561Z,3.40
2023-04-27T14:57:56.224Z,4.20
2023-04-27T15:00:22.934Z,9.60
2023-04-27T15:02:49.741Z,6.20
2023-04-27T15:05:16.448Z,19.10
2023-04-27T15:07:43.132Z,4.30
2023-04-27T15:10:10.069Z,5.30
2023-04-27T15:12:36.706Z,12.70
2023-04-27T15:15:03.681Z,23.60
2023-04-27T15:17:30.617Z,19.30
2023-04-27T15:19:57.254Z,51.00
2023-04-27T15:22:24.003Z,11.10
2023-04-27T15:24:51.259Z,23.00
2023-04-27T15:27:17.909Z,35.00
2023-04-27T15:29:44.651Z,58.30
2023-04-27T15:32:11.718Z,6.60
2023-04-27T15:34:38.837Z,23.90
2023-04-27T15:37:05.686Z,23.40
2023-04-27T15:39:32.306Z,35.20
2023-04-27T15:41:59.802Z,17.30
2023-04-27T15:44:27.167Z,20.90
2023-04-27T15:46:54.393Z,10.00
2023-04-27T15:49:21.734Z,39.00
2023-04-27T15:51:49.108Z,61.50
2023-04-27T15:54:17.728Z,41.30
2023-04-27T15:56:44.488Z,26.00
2023-04-27T15:59:12.193Z,6.10
2023-04-27T16:01:39.114Z,14.90
2023-04-27T16:04:06.397Z,7.50
2023-04-27T16:06:34.921Z,6.80
2023-04-27T16:09:03.535Z,6.50
2023-04-27T16:11:31.714Z,6.50
2023-04-27T16:13:59.599Z,7.60
2023-04-27T16:16:27.085Z,5.90
2023-04-27T16:18:53.951Z,5.60
2023-04-27T16:21:20.551Z,7.00
2023-04-27T16:23:47.515Z,7.10
2023-04-27T16:26:14.371Z,9.00
2023-04-27T16:28:41.532Z,9.20
2023-04-27T16:31:08.301Z,5.10
2023-04-27T16:33:34.998Z,7.30
2023-04-27T16:36:01.663Z,7.90
2023-04-27T16:38:28.250Z,4.60
2023-04-27T16:40:56.073Z,6.70
2023-04-27T16:43:22.972Z,5.90
2023-04-27T16:45:49.803Z,6.50
2023-04-27T16:48:17.651Z,9.70
2023-04-27T16:50:44.735Z,7.00
2023-04-27T16:53:19.831Z,7.50
2023-04-27T16:55:46.929Z,7.80
2023-04-27T16:58:13.831Z,4.40
2023-04-27T17:00:41.061Z,5.30
2023-04-27T17:03:07.892Z,8.20
2023-04-27T17:05:34.930Z,5.50
2023-04-27T17:08:03.061Z,5.40
2023-04-27T17:10:32.192Z,7.90
2023-04-27T17:12:59.324Z,7.00
2023-04-27T17:15:28.846Z,5.80
2023-04-27T17:17:56.295Z,6.10
2023-04-27T17:20:23.122Z,9.50
2023-04-27T17:22:49.741Z,6.00
2023-04-27T17:25:16.904Z,6.50
2023-04-27T17:27:43.493Z,9.10
2023-04-27T17:30:10.868Z,7.50
2023-04-27T17:32:37.780Z,5.60
2023-04-27T17:35:05.661Z,7.00
2023-04-27T17:37:32.669Z,9.60
2023-04-27T17:39:59.451Z,7.10
2023-04-27T17:42:26.232Z,7.40
2023-04-27T17:44:52.869Z,5.80
2023-04-27T17:47:22.265Z,8.60
2023-04-27T17:49:49.067Z,7.10
2023-04-27T17:52:16.063Z,7.30
2023-04-27T17:54:43.493Z,4.80
2023-04-27T17:57:10.100Z,9.70
2023-04-27T17:59:37.019Z,6.70
2023-04-27T18:02:03.699Z,8.10
2023-04-27T18:04:30.547Z,9.90
2023-04-27T18:06:57.513Z,18.60
2023-04-27T18:09:26.276Z,59.40
2023-04-27T18:11:53.085Z,49.00
2023-04-27T18:14:19.737Z,52.50
2023-04-27T18:16:46.497Z,14.60
2023-04-27T18:19:13.462Z,10.30
2023-04-27T18:21:40.684Z,6.20
2023-04-27T18:24:08.623Z,4.50
2023-04-27T18:26:36.979Z,5.80
2023-04-27T18:29:03.686Z,4.90
2023-04-27T18:31:30.673Z,7.40
2023-04-27T18:33:57.661Z,7.00
2023-04-27T18:36:27.624Z,7.70
2023-04-27T18:41:21.544Z,9.40
2023-04-27T18:43:48.219Z,9.10
2023-04-27T18:46:14.998Z,17.40
2023-04-27T18:48:42.274Z,46.50
2023-04-27T18:51:09.151Z,40.90
2023-04-27T18:53:35.937Z,46.10
2023-04-27T18:56:03.189Z,62.70
2023-04-27T18:58:30.104Z,18.90
2023-04-27T19:00:56.852Z,11.40
2023-04-27T19:03:24.261Z,33.40
2023-04-27T19:05:52.571Z,27.60
2023-04-27T19:08:19.353Z,20.50
2023-04-27T19:10:46.227Z,28.40
2023-04-27T19:13:12.924Z,22.20
2023-04-27T19:15:39.708Z,20.00
2023-04-27T19:18:11.354Z,15.70
2023-04-27T19:20:40.827Z,19.70
2023-04-27T19:23:09.451Z,16.10
2023-04-27T19:25:36.727Z,15.30
2023-04-27T19:28:04.582Z,15.40
2023-04-27T19:30:31.415Z,16.00
2023-04-27T19:32:58.213Z,14.80
2023-04-27T19:35:26.548Z,15.10
2023-04-27T19:37:53.395Z,17.90
2023-04-27T19:40:20.002Z,16.10
2023-04-27T19:42:48.064Z,17.60
2023-04-27T19:45:15.499Z,16.10
2023-04-27T19:47:42.265Z,17.00
2023-04-27T19:50:09.680Z,24.20
2023-04-27T19:52:36.905Z,19.60
2023-04-27T19:55:04.451Z,21.30
2023-04-27T19:57:31.479Z,25.30
2023-04-27T19:59:58.146Z,22.50
2023-04-27T20:02:25.066Z,26.60
2023-04-27T20:04:52.151Z,21.50
2023-04-27T20:07:18.976Z,21.80
2023-04-27T20:09:45.680Z,21.20
2023-04-27T20:12:28.910Z,25.60
2023-04-27T20:14:59.173Z,27.40
2023-04-27T20:17:27.444Z,29.80
2023-04-27T20:19:56.301Z,19.40
2023-04-27T20:22:23.923Z,28.80
2023-04-27T20:24:50.899Z,23.90
2023-04-27T20:27:18.128Z,29.00
2023-04-27T20:29:46.718Z,32.30
2023-04-27T20:32:13.501Z,59.30
2023-04-27T20:34:40.101Z,171.10
2023-04-27T20:37:07.847Z,146.50
2023-04-27T20:39:35.156Z,39.30
2023-04-27T20:42:02.183Z,31.50
2023-04-27T20:44:29.030Z,32.20
2023-04-27T20:46:56.248Z,177.40
2023-04-27T20:49:31.895Z,315.30
2023-04-27T20:52:01.893Z,317.50
2023-04-27T20:54:31.094Z,287.40
2023-04-27T20:56:58.067Z,95.00
2023-04-27T20:59:25.215Z,109.80
2023-04-27T21:01:52.215Z,63.70
2023-04-27T21:04:19.293Z,62.50
2023-04-27T21:06:46.441Z,54.50
2023-04-27T21:09:13.176Z,52.10
2023-04-27T21:11:40.039Z,38.30
2023-04-27T21:14:07.039Z,52.40
2023-04-27T21:16:33.942Z,49.50
2023-04-27T21:19:00.925Z,44.10
2023-04-27T21:21:27.839Z,45.00
2023-04-27T21:24:04.209Z,47.30
2023-04-27T21:26:42.537Z,44.20
2023-04-27T21:29:09.122Z,41.70
2023-04-27T21:31:35.969Z,42.30
2023-04-27T21:34:05.800Z,45.20
2023-04-27T21:36:32.372Z,47.20
2023-04-27T21:38:58.906Z,48.10
2023-04-27T21:41:26.229Z,53.50
2023-04-27T21:43:52.899Z,54.10
2023-04-27T21:46:19.665Z,58.40
2023-04-27T21:48:46.334Z,61.20
2023-04-27T21:51:14.945Z,53.50
2023-04-27T21:53:41.697Z,65.90
2023-04-27T21:56:08.424Z,94.10
2023-04-27T21:58:35.077Z,108.50
2023-04-27T22:01:01.844Z,114.40
2023-04-27T22:03:28.772Z,149.40
2023-04-27T22:05:57.664Z,138.00
2023-04-27T22:08:24.375Z,112.40
2023-04-27T22:10:51.234Z,99.40
2023-04-27T22:13:19.328Z,114.30
2023-04-27T22:15:47.446Z,99.10
2023-04-27T22:18:15.662Z,94.20
2023-04-27T22:20:43.223Z,85.50
2023-04-27T22:23:10.897Z,78.80
2023-04-27T22:25:37.695Z,77.50
2023-04-27T22:28:04.545Z,84.80
2023-04-27T22:30:31.334Z,82.70
2023-04-27T22:32:58.376Z,82.50
2023-04-27T22:35:27.687Z,82.30
2023-04-27T22:37:59.136Z,84.10
2023-04-27T22:40:26.463Z,83.90
2023-04-27T22:42:54.896Z,86.00
2023-04-27T22:45:22.738Z,85.30
2023-04-27T22:47:49.577Z,88.70
2023-04-27T22:50:16.763Z,78.60
2023-04-27T22:52:43.727Z,84.50
2023-04-27T22:55:11.999Z,78.60
2023-04-27T22:57:39.744Z,73.00
2023-04-27T23:00:09.093Z,91.90
2023-04-27T23:02:36.024Z,94.20
2023-04-27T23:05:03.878Z,100.70
2023-04-27T23:07:30.711Z,102.20
2023-04-27T23:09:57.313Z,93.90
2023-04-27T23:12:26.946Z,91.50
2023-04-27T23:14:53.526Z,91.60
2023-04-27T23:17:22.579Z,92.80
2023-04-27T23:19:49.684Z,95.10
2023-04-27T23:22:16.640Z,95.90
2023-04-27T23:24:43.393Z,100.70
2023-04-27T23:27:09.922Z,92.70
2023-04-27T23:29:36.518Z,94.30
2023-04-27T23:32:04.624Z,90.70
2023-04-27T23:34:34.298Z,93.00
2023-04-27T23:37:01.519Z,89.50
2023-04-27T23:39:28.641Z,85.20
2023-04-27T23:41:55.411Z,79.30
2023-04-27T23:44:22.112Z,81.50
2023-04-27T23:46:48.637Z,86.50
2023-04-27T23:49:15.421Z,80.70
2023-04-27T23:51:42.154Z,79.80
2023-04-27T23:54:09.002Z,75.70
2023-04-27T23:56:36.634Z,73.80
2023-04-27T23:59:03.512Z,75.10
